createdAt,value
2023-05-10T00:02:21.539Z,97422.81
2023-05-10T00:04:47.906Z,97429.78
2023-05-10T00:07:14.287Z,97430.34
2023-05-10T00:09:40.569Z,97420.13
2023-05-10T00:12:06.959Z,97425.50
2023-05-10T00:14:33.320Z,97422.28
2023-05-10T00:16:59.686Z,97425.22
2023-05-10T00:19:26.019Z,97426.31
2023-05-10T00:21:52.403Z,97421.75
2023-05-10T00:24:18.677Z,97423.88
2023-05-10T00:26:45.082Z,97421.47
2023-05-10T00:29:11.468Z,97417.94
2023-05-10T00:31:37.789Z,97410.97
2023-05-10T00:34:04.310Z,97416.34
2023-05-10T00:36:30.586Z,97411.78
2023-05-10T00:38:56.868Z,97406.13
2023-05-10T00:41:23.190Z,97403.97
2023-05-10T00:43:49.515Z,97408.28
2023-05-10T00:46:16.712Z,97409.88
2023-05-10T00:48:44.281Z,97405.53
2023-05-10T00:51:10.836Z,97406.63
2023-05-10T00:53:37.233Z,97402.31
2023-05-10T00:56:03.762Z,97412.28
2023-05-10T00:58:30.185Z,97402.06
2023-05-10T01:00:56.549Z,97410.94
2023-05-10T01:03:23.003Z,97417.38
2023-05-10T01:05:49.406Z,97419.50
2023-05-10T01:08:15.868Z,97424.59
2023-05-10T01:10:43.739Z,97424.06
2023-05-10T01:13:10.733Z,97428.63
2023-05-10T01:15:37.755Z,97421.91
2023-05-10T01:18:04.321Z,97417.59
2023-05-10T01:20:41.248Z,97423.25
2023-05-10T01:23:49.952Z,97418.41
2023-05-10T01:26:40.103Z,97418.69
2023-05-10T01:29:17.258Z,97417.06
2023-05-10T01:32:16.224Z,97423.78
2023-05-10T01:34:56.668Z,97420.03
2023-05-10T01:37:32.042Z,97421.09
2023-05-10T01:40:20.458Z,97418.13
2023-05-10T01:42:52.693Z,97418.09
2023-05-10T01:45:31.712Z,97411.38
2023-05-10T01:48:09.206Z,97415.13
2023-05-10T01:50:37.415Z,97422.66
2023-05-10T01:53:07.482Z,97412.97
2023-05-10T01:55:40.688Z,97418.34
2023-05-10T01:58:14.784Z,97417.56
2023-05-10T02:00:44.225Z,97424.81
2023-05-10T02:03:12.146Z,97426.13
2023-05-10T02:05:39.715Z,97424.50
2023-05-10T02:08:07.700Z,97423.72
2023-05-10T02:10:36.153Z,97419.41
2023-05-10T02:13:04.181Z,97413.78
2023-05-10T02:15:31.566Z,97416.19
2023-05-10T02:18:00.739Z,97421.56
2023-05-10T02:20:27.814Z,97421.31
2023-05-10T02:22:56.626Z,97419.69
2023-05-10T02:25:24.851Z,97419.94
2023-05-10T02:27:54.581Z,97423.19
2023-05-10T02:30:22.428Z,97422.91
2023-05-10T02:32:50.245Z,97420.50
2023-05-10T02:35:17.664Z,97421.84
2023-05-10T02:37:46.252Z,97415.41
2023-05-10T02:40:13.734Z,97427.75
2023-05-10T02:42:44.786Z,97414.84
2023-05-10T02:45:24.541Z,97425.59
2023-05-10T02:47:50.913Z,97420.78
2023-05-10T02:50:17.510Z,97421.56
2023-05-10T02:52:48.642Z,97418.59
2023-05-10T02:55:17.122Z,97426.13
2023-05-10T02:57:51.741Z,97425.31
2023-05-10T03:00:18.497Z,97425.53
2023-05-10T03:02:44.939Z,97425.25
2023-05-10T03:05:11.295Z,97430.06
2023-05-10T03:07:37.815Z,97423.09
2023-05-10T03:10:04.604Z,97426.56
2023-05-10T03:12:53.097Z,97432.41
2023-05-10T03:15:47.397Z,97426.22
2023-05-10T03:18:18.195Z,97430.22
2023-05-10T03:20:56.427Z,97432.09
2023-05-10T03:23:34.967Z,97438.78
2023-05-10T03:26:02.532Z,97429.84
2023-05-10T03:28:29.579Z,97438.13
2023-05-10T03:30:56.991Z,97435.97
2023-05-10T03:33:23.323Z,97453.13
2023-05-10T03:35:49.696Z,97446.66
2023-05-10T03:38:16.077Z,97441.28
2023-05-10T03:40:42.550Z,97449.56
2023-05-10T03:43:09.102Z,97454.38
2023-05-10T03:45:35.405Z,97457.56
2023-05-10T03:48:02.010Z,97462.38
2023-05-10T03:50:28.473Z,97470.19
2023-05-10T03:52:55.012Z,97464.56
2023-05-10T03:55:21.527Z,97468.09
2023-05-10T03:57:47.784Z,97470.78
2023-05-10T04:00:14.703Z,97473.75
2023-05-10T04:02:41.551Z,97480.44
2023-05-10T04:05:08.358Z,97479.88
2023-05-10T04:07:34.760Z,97479.31
2023-05-10T04:10:01.103Z,97478.22
2023-05-10T04:12:27.518Z,97479.28
2023-05-10T04:14:53.815Z,97477.41
2023-05-10T04:17:20.184Z,97480.63
2023-05-10T04:19:46.569Z,97488.66
2023-05-10T04:22:12.914Z,97494.28
2023-05-10T04:24:39.235Z,97495.59
2023-05-10T04:27:05.552Z,97496.66
2023-05-10T04:29:31.946Z,97495.81
2023-05-10T04:31:58.238Z,97496.09
2023-05-10T04:34:24.626Z,97502.00
2023-05-10T04:36:50.927Z,97498.75
2023-05-10T04:39:17.412Z,97508.16
2023-05-10T04:41:43.719Z,97508.16
2023-05-10T04:44:10.032Z,97509.53
2023-05-10T04:46:36.409Z,97517.59
2023-05-10T04:49:02.845Z,97516.53
2023-05-10T04:51:29.143Z,97525.91
2023-05-10T04:54:05.281Z,97522.97
2023-05-10T04:56:32.643Z,97533.69
2023-05-10T04:58:58.988Z,97541.22
2023-05-10T05:01:25.321Z,97536.38
2023-05-10T05:03:51.708Z,97546.84
2023-05-10T05:06:18.207Z,97548.00
2023-05-10T05:08:44.729Z,97558.25
2023-05-10T05:11:11.057Z,97552.63
2023-05-10T05:13:37.366Z,97553.94
2023-05-10T05:16:04.048Z,97546.94
2023-05-10T05:18:30.506Z,97546.13
2023-05-10T05:20:56.856Z,97550.38
2023-05-10T05:23:23.154Z,97549.16
2023-05-10T05:25:49.522Z,97561.25
2023-05-10T05:28:15.817Z,97559.94
2023-05-10T05:30:42.113Z,97569.59
2023-05-10T05:33:08.475Z,97562.34
2023-05-10T05:35:34.832Z,97559.34
2023-05-10T05:38:01.181Z,97567.44
2023-05-10T05:40:27.459Z,97557.75
2023-05-10T05:42:53.752Z,97557.84
2023-05-10T05:45:20.221Z,97568.06
2023-05-10T05:47:46.809Z,97569.13
2023-05-10T05:50:13.266Z,97568.66
2023-05-10T05:52:39.698Z,97570.56
2023-05-10T05:55:06.164Z,97573.28
2023-05-10T05:57:32.581Z,97573.56
2023-05-10T05:59:58.852Z,97579.19
2023-05-10T06:02:25.303Z,97573.28
2023-05-10T06:04:51.781Z,97579.25
2023-05-10T06:07:18.106Z,97588.22
2023-05-10T06:09:44.485Z,97590.41
2023-05-10T06:12:10.776Z,97596.59
2023-05-10T06:14:37.087Z,97599.56
2023-05-10T06:17:03.470Z,97585.56
2023-05-10T06:19:29.813Z,97600.44
2023-05-10T06:21:56.222Z,97601.25
2023-05-10T06:24:22.635Z,97601.84
2023-05-10T06:26:48.919Z,97610.44
2023-05-10T06:29:15.230Z,97615.91
2023-05-10T06:31:41.599Z,97611.63
2023-05-10T06:34:07.982Z,97616.00
2023-05-10T06:36:34.809Z,97608.75
2023-05-10T06:39:01.271Z,97616.88
2023-05-10T06:41:27.561Z,97613.47
2023-05-10T06:43:53.867Z,97619.13
2023-05-10T06:46:20.275Z,97618.91
2023-05-10T06:48:46.650Z,97621.31
2023-05-10T06:51:12.953Z,97619.19
2023-05-10T06:53:39.263Z,97615.16
2023-05-10T06:56:05.671Z,97618.66
2023-05-10T06:58:31.964Z,97621.94
2023-05-10T07:01:03.592Z,97620.09
2023-05-10T07:03:30.022Z,97620.88
2023-05-10T07:06:02.032Z,97628.16
2023-05-10T07:08:28.324Z,97633.28
2023-05-10T07:11:02.690Z,97629.75
2023-05-10T07:13:29.088Z,97634.00
2023-05-10T07:15:55.392Z,97632.91
2023-05-10T07:18:21.888Z,97632.63
2023-05-10T07:20:48.379Z,97631.28
2023-05-10T07:23:14.992Z,97639.38
2023-05-10T07:25:41.478Z,97648.50
2023-05-10T07:28:07.787Z,97653.34
2023-05-10T07:30:34.240Z,97648.44
2023-05-10T07:33:00.638Z,97651.38
2023-05-10T07:35:27.029Z,97653.31
2023-05-10T07:37:53.459Z,97647.19
2023-05-10T07:40:19.912Z,97650.16
2023-05-10T07:42:46.256Z,97648.84
2023-05-10T07:45:12.604Z,97650.47
2023-05-10T07:47:38.937Z,97653.16
2023-05-10T07:50:06.073Z,97656.66
2023-05-10T07:52:32.364Z,97660.94
2023-05-10T07:54:58.629Z,97659.28
2023-05-10T07:57:25.105Z,97664.94
2023-05-10T07:59:51.401Z,97664.94
2023-05-10T08:02:17.729Z,97667.13
2023-05-10T08:04:44.246Z,97674.69
2023-05-10T08:07:10.732Z,97672.28
2023-05-10T08:09:37.036Z,97666.38
2023-05-10T08:12:03.417Z,97671.00
2023-05-10T08:14:30.467Z,97669.66
2023-05-10T08:16:56.979Z,97680.19
2023-05-10T08:19:23.272Z,97676.97
2023-05-10T08:21:49.846Z,97667.78
2023-05-10T08:24:16.371Z,97667.75
2023-05-10T08:26:42.672Z,97668.81
2023-05-10T08:29:09.028Z,97670.13
2023-05-10T08:31:35.306Z,97679.53
2023-05-10T08:34:01.649Z,97676.84
2023-05-10T08:36:27.986Z,97682.75
2023-05-10T08:38:55.012Z,97672.25
2023-05-10T08:41:22.620Z,97671.63
2023-05-10T08:43:49.482Z,97682.28
2023-05-10T08:46:18.261Z,97681.13
2023-05-10T08:48:49.332Z,97674.31
2023-05-10T08:51:19.689Z,97687.66
2023-05-10T08:53:46.941Z,97673.50
2023-05-10T08:56:13.922Z,97683.03
2023-05-10T08:58:40.317Z,97685.50
2023-05-10T09:01:06.710Z,97687.72
2023-05-10T09:03:33.189Z,97699.84
2023-05-10T09:05:59.708Z,97699.84
2023-05-10T09:08:26.966Z,97703.84
2023-05-10T09:10:55.097Z,97696.00
2023-05-10T09:13:23.442Z,97700.53
2023-05-10T09:15:50.208Z,97703.28
2023-05-10T09:18:16.636Z,97703.75
2023-05-10T09:20:43.116Z,97697.34
2023-05-10T09:23:09.421Z,97701.94
2023-05-10T09:25:36.066Z,97703.34
2023-05-10T09:28:02.721Z,97700.66
2023-05-10T09:30:31.137Z,97698.22
2023-05-10T09:33:00.033Z,97692.25
2023-05-10T09:35:29.789Z,97697.59
2023-05-10T09:37:58.522Z,97692.97
2023-05-10T09:40:26.676Z,97699.00
2023-05-10T09:42:58.067Z,97694.63
2023-05-10T09:45:26.605Z,97703.50
2023-05-10T09:47:53.425Z,97696.78
2023-05-10T09:50:20.995Z,97694.97
2023-05-10T09:53:01.551Z,97690.81
2023-05-10T09:55:41.527Z,97692.13
2023-05-10T09:58:08.452Z,97682.94
2023-05-10T10:00:39.945Z,97693.69
2023-05-10T10:03:07.117Z,97693.13
2023-05-10T10:05:35.223Z,97695.03
2023-05-10T10:08:04.364Z,97689.97
2023-05-10T10:10:32.337Z,97693.22
2023-05-10T10:12:58.915Z,97681.63
2023-05-10T10:15:25.439Z,97689.97
2023-05-10T10:17:53.162Z,97683.47
2023-05-10T10:20:21.552Z,97691.97
2023-05-10T10:22:48.326Z,97688.34
2023-05-10T10:25:17.064Z,97683.94
2023-05-10T10:27:57.177Z,97685.50
2023-05-10T10:30:23.527Z,97688.03
2023-05-10T10:33:28.823Z,97690.13
2023-05-10T10:35:59.011Z,97689.50
2023-05-10T10:38:25.425Z,97682.25
2023-05-10T10:41:10.576Z,97674.41
2023-05-10T10:43:36.908Z,97687.38
2023-05-10T10:46:13.395Z,97680.41
2023-05-10T10:48:40.421Z,97686.63
2023-05-10T10:51:06.870Z,97702.69
2023-05-10T10:53:33.745Z,97695.72
2023-05-10T10:56:10.957Z,97701.16
2023-05-10T10:58:39.255Z,97692.00
2023-05-10T11:01:19.494Z,97695.72
2023-05-10T11:04:01.079Z,97687.00
2023-05-10T11:06:31.079Z,97688.09
2023-05-10T11:08:57.429Z,97687.81
2023-05-10T11:11:24.120Z,97691.78
2023-05-10T11:13:51.477Z,97681.97
2023-05-10T11:16:25.674Z,97683.66
2023-05-10T11:18:55.112Z,97687.88
2023-05-10T11:21:21.552Z,97689.03
2023-05-10T11:23:47.837Z,97692.06
2023-05-10T11:26:14.461Z,97688.78
2023-05-10T11:28:48.921Z,97691.09
2023-05-10T11:31:16.914Z,97692.94
2023-05-10T11:33:47.565Z,97688.41
2023-05-10T11:36:18.632Z,97694.69
2023-05-10T11:38:45.826Z,97683.44
2023-05-10T11:41:12.912Z,97691.25
2023-05-10T11:43:39.880Z,97700.25
2023-05-10T11:46:12.072Z,97701.63
2023-05-10T11:48:42.543Z,97708.34
2023-05-10T11:51:10.114Z,97699.75
2023-05-10T11:53:36.515Z,97703.59
2023-05-10T11:56:07.838Z,97709.63
2023-05-10T11:58:35.845Z,97702.91
2023-05-10T12:01:03.227Z,97713.97
2023-05-10T12:03:30.478Z,97716.19
2023-05-10T12:05:58.294Z,97706.84
2023-05-10T12:08:26.730Z,97704.97
2023-05-10T12:10:54.940Z,97705.00
2023-05-10T12:13:21.697Z,97712.03
2023-05-10T12:15:48.386Z,97709.31
2023-05-10T12:18:15.504Z,97715.50
2023-05-10T12:20:42.108Z,97701.97
2023-05-10T12:23:13.914Z,97710.28
2023-05-10T12:25:40.303Z,97702.09
2023-05-10T12:28:08.821Z,97705.28
2023-05-10T12:30:36.588Z,97708.50
2023-05-10T12:33:08.745Z,97707.88
2023-05-10T12:35:45.508Z,97707.19
2023-05-10T12:38:37.588Z,97712.47
2023-05-10T12:41:05.649Z,97718.66
2023-05-10T12:43:33.308Z,97712.09
2023-05-10T12:46:00.004Z,97712.34
2023-05-10T12:48:26.303Z,97709.81
2023-05-10T12:50:52.666Z,97710.88
2023-05-10T12:53:18.971Z,97694.66
2023-05-10T12:55:45.433Z,97700.72
2023-05-10T12:58:15.820Z,97696.59
2023-05-10T13:00:47.614Z,97702.94
2023-05-10T13:03:14.008Z,97695.75
2023-05-10T13:05:40.295Z,97708.19
2023-05-10T13:08:06.650Z,97714.19
2023-05-10T13:10:33.262Z,97702.69
2023-05-10T13:13:00.062Z,97709.31
2023-05-10T13:15:27.146Z,97704.06
2023-05-10T13:17:54.154Z,97697.28
2023-05-10T13:20:20.519Z,97698.78
2023-05-10T13:22:47.288Z,97702.84
2023-05-10T13:25:14.164Z,97703.88
2023-05-10T13:27:41.021Z,97707.47
2023-05-10T13:30:08.780Z,97703.44
2023-05-10T13:32:36.048Z,97706.53
2023-05-10T13:35:02.870Z,97695.97
2023-05-10T13:37:29.166Z,97708.22
2023-05-10T13:39:55.482Z,97704.06
2023-05-10T13:42:23.330Z,97699.63
2023-05-10T13:44:50.199Z,97702.81
2023-05-10T13:47:16.559Z,97695.44
2023-05-10T13:49:42.998Z,97691.56
2023-05-10T13:52:09.679Z,97702.63
2023-05-10T13:54:36.522Z,97704.75
2023-05-10T13:57:02.816Z,97699.13
2023-05-10T13:59:29.874Z,97694.56
2023-05-10T14:01:56.234Z,97696.25
2023-05-10T14:04:22.571Z,97692.56
2023-05-10T14:06:48.873Z,97699.00
2023-05-10T14:09:15.368Z,97695.78
2023-05-10T14:11:41.678Z,97699.34
2023-05-10T14:14:08.225Z,97699.41
2023-05-10T14:16:34.555Z,97706.19
2023-05-10T14:19:01.034Z,97707.03
2023-05-10T14:21:27.413Z,97697.44
2023-05-10T14:23:53.692Z,97700.09
2023-05-10T14:26:20.094Z,97697.56
2023-05-10T14:28:46.459Z,97690.03
2023-05-10T14:31:12.980Z,97691.19
2023-05-10T14:33:39.520Z,97694.97
2023-05-10T14:36:06.194Z,97694.47
2023-05-10T14:38:32.483Z,97692.09
2023-05-10T14:40:58.975Z,97700.34
2023-05-10T14:43:25.476Z,97700.13
2023-05-10T14:45:51.824Z,97698.22
2023-05-10T14:48:18.278Z,97692.06
2023-05-10T14:50:45.863Z,97685.28
2023-05-10T14:53:12.234Z,97697.47
2023-05-10T14:55:38.638Z,97699.19
2023-05-10T14:58:04.909Z,97700.13
2023-05-10T15:00:31.893Z,97702.84
2023-05-10T15:02:58.762Z,97696.59
2023-05-10T15:05:25.493Z,97702.84
2023-05-10T15:07:52.244Z,97708.97
2023-05-10T15:10:19.165Z,97715.53
2023-05-10T15:12:45.450Z,97717.16
2023-05-10T15:15:11.745Z,97717.22
2023-05-10T15:17:38.064Z,97734.88
2023-05-10T15:20:04.840Z,97724.44
2023-05-10T15:22:32.410Z,97731.88
2023-05-10T15:24:59.720Z,97747.28
2023-05-10T15:27:26.708Z,97748.91
2023-05-10T15:29:53.733Z,97747.28
2023-05-10T15:32:20.043Z,97740.28
2023-05-10T15:34:46.419Z,97753.75
2023-05-10T15:37:12.853Z,97757.53
2023-05-10T15:39:39.177Z,97749.09
2023-05-10T15:42:05.647Z,97750.47
2023-05-10T15:44:32.155Z,97752.34
2023-05-10T15:46:58.695Z,97755.56
2023-05-10T15:49:25.147Z,97754.97
2023-05-10T15:51:51.564Z,97767.94
2023-05-10T15:54:17.890Z,97770.63
2023-05-10T15:56:44.220Z,97766.56
2023-05-10T15:59:10.660Z,97771.13
2023-05-10T16:01:37.100Z,97765.47
2023-05-10T16:04:03.414Z,97759.53
2023-05-10T16:06:29.744Z,97763.03
2023-05-10T16:08:56.026Z,97762.25
2023-05-10T16:11:22.466Z,97768.19
2023-05-10T16:13:48.794Z,97772.75
2023-05-10T16:16:15.146Z,97778.13
2023-05-10T16:18:41.637Z,97765.75
2023-05-10T16:21:07.968Z,97776.78
2023-05-10T16:23:34.295Z,97768.09
2023-05-10T16:26:00.614Z,97767.53
2023-05-10T16:28:27.037Z,97779.81
2023-05-10T16:30:53.375Z,97776.84
2023-05-10T16:33:19.712Z,97785.72
2023-05-10T16:35:46.323Z,97787.63
2023-05-10T16:38:12.647Z,97791.66
2023-05-10T16:40:38.957Z,97790.06
2023-05-10T16:43:05.293Z,97788.41
2023-05-10T16:45:32.006Z,97788.38
2023-05-10T16:47:58.368Z,97798.53
2023-05-10T16:50:24.750Z,97791.75
2023-05-10T16:52:51.050Z,97800.06
2023-05-10T16:55:17.662Z,97802.94
2023-05-10T16:57:44.134Z,97804.22
2023-05-10T17:00:11.080Z,97804.22
2023-05-10T17:02:37.633Z,97806.09
2023-05-10T17:05:04.618Z,97805.03
2023-05-10T17:07:30.945Z,97813.38
2023-05-10T17:09:57.238Z,97813.34
2023-05-10T17:12:23.530Z,97813.63
2023-05-10T17:14:49.858Z,97805.78
2023-05-10T17:17:16.246Z,97810.03
2023-05-10T17:19:45.277Z,97812.97
2023-05-10T17:22:13.503Z,97816.16
2023-05-10T17:24:39.837Z,97814.81
2023-05-10T17:27:06.122Z,97820.19
2023-05-10T17:29:32.546Z,97825.03
2023-05-10T17:31:59.169Z,97825.66
2023-05-10T17:34:25.604Z,97823.47
2023-05-10T17:36:51.980Z,97827.78
2023-05-10T17:39:18.363Z,97830.78
2023-05-10T17:41:44.674Z,97837.47
2023-05-10T17:44:10.981Z,97834.47
2023-05-10T17:46:37.402Z,97842.25
2023-05-10T17:49:03.755Z,97832.00
2023-05-10T17:51:30.078Z,97838.44
2023-05-10T17:53:56.408Z,97843.00
2023-05-10T17:56:22.716Z,97843.00
2023-05-10T17:58:49.008Z,97847.56
2023-05-10T18:01:15.321Z,97859.13
2023-05-10T18:03:41.659Z,97855.63
2023-05-10T18:06:08.053Z,97858.88
2023-05-10T18:08:34.367Z,97864.00
2023-05-10T18:11:01.088Z,97859.44
2023-05-10T18:13:27.473Z,97864.81
2023-05-10T18:15:53.836Z,97865.31
2023-05-10T18:18:20.268Z,97865.53
2023-05-10T18:20:46.659Z,97863.91
2023-05-10T18:23:13.016Z,97870.34
2023-05-10T18:25:39.319Z,97876.25
2023-05-10T18:28:05.621Z,97870.28
2023-05-10T18:30:32.045Z,97870.53
2023-05-10T18:32:58.433Z,97880.47
2023-05-10T18:35:24.926Z,97873.47
2023-05-10T18:37:51.807Z,97874.25
2023-05-10T18:40:18.217Z,97879.06
2023-05-10T18:42:44.534Z,97882.00
2023-05-10T18:45:11.111Z,97875.50
2023-05-10T18:47:37.449Z,97876.28
2023-05-10T18:50:04.495Z,97875.13
2023-05-10T18:52:30.864Z,97881.00
2023-05-10T18:54:57.273Z,97878.03
2023-05-10T18:57:23.628Z,97881.47
2023-05-10T18:59:50.159Z,97881.97
2023-05-10T19:02:17.571Z,97894.03
2023-05-10T19:04:44.160Z,97888.59
2023-05-10T19:07:10.774Z,97895.03
2023-05-10T19:09:37.189Z,97893.63
2023-05-10T19:12:03.584Z,97895.50
2023-05-10T19:14:29.964Z,97895.50
2023-05-10T19:16:56.357Z,97908.69
2023-05-10T19:19:24.778Z,97900.31
2023-05-10T19:21:51.216Z,97907.00
2023-05-10T19:24:17.668Z,97901.88
2023-05-10T19:26:44.612Z,97905.06
2023-05-10T19:29:13.040Z,97915.25
2023-05-10T19:31:39.388Z,97907.13
2023-05-10T19:34:06.393Z,97910.53
2023-05-10T19:36:34.333Z,97913.44
2023-05-10T19:39:00.666Z,97909.38
2023-05-10T19:41:26.970Z,97918.50
2023-05-10T19:43:53.880Z,97910.94
2023-05-10T19:46:20.512Z,97922.50
2023-05-10T19:48:48.657Z,97914.13
2023-05-10T19:51:16.296Z,97914.38
2023-05-10T19:53:42.585Z,97916.50
2023-05-10T19:56:08.945Z,97921.28
2023-05-10T19:58:35.508Z,97914.81
2023-05-10T20:01:02.324Z,97913.44
2023-05-10T20:03:28.877Z,97914.97
2023-05-10T20:05:55.282Z,97921.69
2023-05-10T20:08:21.588Z,97914.72
2023-05-10T20:10:47.975Z,97915.78
2023-05-10T20:13:14.294Z,97911.72
2023-05-10T20:15:40.604Z,97914.63
2023-05-10T20:18:07.107Z,97918.38
2023-05-10T20:20:33.541Z,97914.06
2023-05-10T20:22:59.935Z,97917.00
2023-05-10T20:25:26.308Z,97916.19
2023-05-10T20:27:52.639Z,97917.00
2023-05-10T20:30:19.241Z,97919.69
2023-05-10T20:32:45.790Z,97909.22
2023-05-10T20:35:12.224Z,97912.13
2023-05-10T20:37:39.168Z,97909.69
2023-05-10T20:40:06.087Z,97908.09
2023-05-10T20:42:32.496Z,97913.69
2023-05-10T20:44:59.949Z,97908.81
2023-05-10T20:47:26.315Z,97914.91
2023-05-10T20:49:52.714Z,97913.28
2023-05-10T20:52:19.016Z,97910.59
2023-05-10T20:54:45.310Z,97915.13
2023-05-10T20:57:11.603Z,97911.66
2023-05-10T20:59:38.006Z,97913.03
2023-05-10T21:02:04.421Z,97910.09
2023-05-10T21:04:30.934Z,97907.66
2023-05-10T21:06:57.390Z,97903.34
2023-05-10T21:09:23.875Z,97905.22
2023-05-10T21:11:50.706Z,97906.03
2023-05-10T21:14:17.196Z,97899.88
2023-05-10T21:16:43.738Z,97898.00
2023-05-10T21:19:10.179Z,97898.25
2023-05-10T21:21:36.482Z,97897.44
2023-05-10T21:24:02.938Z,97901.41
2023-05-10T21:26:29.245Z,97900.59
2023-05-10T21:28:55.627Z,97899.22
2023-05-10T21:31:22.117Z,97901.09
2023-05-10T21:33:48.489Z,97897.84
2023-05-10T21:36:14.846Z,97903.22
2023-05-10T21:38:41.215Z,97891.69
2023-05-10T21:41:07.862Z,97883.63
2023-05-10T21:43:34.244Z,97890.63
2023-05-10T21:46:00.589Z,97893.88
2023-05-10T21:48:26.914Z,97894.91
2023-05-10T21:50:53.293Z,97893.28
2023-05-10T21:53:19.684Z,97901.34
2023-05-10T21:55:46.015Z,97893.28
2023-05-10T21:58:12.313Z,97890.63
2023-05-10T22:00:38.729Z,97889.81
2023-05-10T22:03:05.157Z,97894.91
2023-05-10T22:05:31.632Z,97893.06
2023-05-10T22:07:57.961Z,97890.69
2023-05-10T22:10:24.281Z,97890.44
2023-05-10T22:12:50.593Z,97886.94
2023-05-10T22:15:17.087Z,97884.50
2023-05-10T22:17:43.495Z,97896.06
2023-05-10T22:20:09.992Z,97891.50
2023-05-10T22:22:36.332Z,97892.56
2023-05-10T22:25:02.694Z,97891.19
2023-05-10T22:27:29.068Z,97890.94
2023-05-10T22:29:56.290Z,97898.72
2023-05-10T22:32:22.587Z,97889.31
2023-05-10T22:34:49.022Z,97892.72
2023-05-10T22:37:15.608Z,97887.53
2023-05-10T22:39:42.378Z,97897.69
2023-05-10T22:42:09.006Z,97889.88
2023-05-10T22:44:35.508Z,97889.06
2023-05-10T22:47:02.157Z,97894.22
2023-05-10T22:49:28.745Z,97892.09
2023-05-10T22:51:55.361Z,97889.97
2023-05-10T22:54:21.919Z,97887.88
2023-05-10T22:56:48.607Z,97890.78
2023-05-10T22:59:15.108Z,97894.28
2023-05-10T23:01:41.817Z,97888.34
2023-05-10T23:04:08.489Z,97895.84
2023-05-10T23:06:35.075Z,97894.78
2023-05-10T23:09:01.602Z,97902.00
2023-05-10T23:11:28.242Z,97897.69
2023-05-10T23:13:54.814Z,97899.78
2023-05-10T23:16:21.482Z,97896.53
2023-05-10T23:18:48.201Z,97895.97
2023-05-10T23:21:15.011Z,97903.44
2023-05-10T23:23:41.637Z,97899.16
2023-05-10T23:26:08.202Z,97905.00
2023-05-10T23:28:35.070Z,97910.59
2023-05-10T23:31:01.594Z,97910.03
2023-05-10T23:33:28.282Z,97915.16
2023-05-10T23:35:54.922Z,97903.63
2023-05-10T23:38:21.869Z,97898.25
2023-05-10T23:40:49.667Z,97902.56
2023-05-10T23:43:19.340Z,97908.72
2023-05-10T23:45:58.475Z,97907.09
2023-05-10T23:48:25.624Z,97904.66
2023-05-10T23:50:52.333Z,97896.06
2023-05-10T23:53:18.948Z,97896.88
2023-05-10T23:55:45.648Z,97897.13
2023-05-10T23:58:12.408Z,97891.19
